Castres-Mazamet Airport

LFCK · Occitanie, Frankreich

6. Oktober 2022

Uhrzeit Code Wetter Temp. Sichtweite Wolkendecke Wind METAR/SPECI
16:00
V
23 °C 10 km+ - 270° 270° 9 kt METAR LFMK 061400Z AUTO 27009KT 230V300 CAVOK 23/15 Q1027 NOSIG
15:30
V
23 °C 10 km+ - 260° 260° 10 kt METAR LFMK 061330Z AUTO 26010KT 230V300 CAVOK 23/15 Q1027 NOSIG
15:00
V
22 °C 10 km+ - 280° 280° 11 kt METAR LFMK 061300Z AUTO 28011KT 250V310 CAVOK 22/15 Q1028 NOSIG
14:30
V
22 °C 10 km+ - 280° 280° 10 kt METAR LFMK 061230Z AUTO 28010KT 240V300 CAVOK 22/15 Q1028 NOSIG
14:00
V
22 °C 10 km+ - 290° 290° 10 kt METAR LFMK 061200Z AUTO 29010KT 240V310 9999 FEW025 22/15 Q1028 NOSIG
13:30
M
22 °C 10 km+ 2.400 ft 300° 300° 11 kt METAR LFMK 061130Z AUTO 30011KT 270V330 9999 BKN024 22/14 Q1029 NOSIG
13:00
M
21 °C 10 km+ 2.300 ft 280° 280° 9 kt METAR LFMK 061100Z AUTO 28009KT 250V310 9999 OVC023 21/14 Q1029 NOSIG
12:30
M
21 °C 10 km+ 2.000 ft 310° 310° 10 kt METAR LFMK 061030Z AUTO 31010KT 270V330 9999 BKN020 BKN026 21/15 Q1029 NOSIG
12:00
M
20 °C 10 km+ 2.700 ft 280° 280° 10 kt METAR LFMK 061000Z AUTO 28010KT 9999 FEW016 OVC027 20/15 Q1029 NOSIG
11:30
M
19 °C 10 km+ 1.400 ft 280° 280° 9 kt METAR LFMK 060930Z AUTO 28009KT 9999 BKN014 OVC027 19/15 Q1030 BECMG SCT035
11:00
M
19 °C 10 km+ 1.400 ft 280° 280° 9 kt METAR LFMK 060900Z AUTO 28009KT 240V300 9999 BKN014 OVC024 19/15 Q1030 BECMG NSC
10:30
M
19 °C 10 km+ 1.500 ft 280° 280° 9 kt METAR LFMK 060830Z AUTO 28009KT 9999 BKN015 OVC022 19/15 Q1030 NOSIG
10:00
M
18 °C 10 km+ 1.500 ft 270° 270° 6 kt METAR LFMK 060800Z AUTO 27006KT 230V300 9999 OVC015 18/14 Q1030 NOSIG
09:30
M
17 °C 10 km+ 1.500 ft 250° 250° 5 kt METAR LFMK 060730Z AUTO 25005KT 220V290 9999 BKN015 OVC023 17/15 Q1030 NOSIG
09:00
M
17 °C 10 km+ 2.200 ft 250° 250° 5 kt METAR LFMK 060700Z AUTO 25005KT 220V290 9999 OVC022 17/15 Q1029 NOSIG
08:30
M
17 °C 10 km+ 1.600 ft 260° 260° 4 kt METAR LFMK 060630Z AUTO 26004KT 230V290 9999 OVC016 17/14 Q1029 NOSIG
08:00
M
17 °C 10 km+ 1.600 ft 260° 260° 3 kt METAR LFMK 060600Z AUTO 26003KT 230V310 9999 OVC016 17/14 Q1029 NOSIG
07:30
M
17 °C 10 km+ 1.700 ft 250° 250° 4 kt METAR LFMK 060530Z AUTO 25004KT 220V290 9999 BKN017 OVC023 17/14 Q1029 NOSIG
07:00
M
17 °C 10 km+ 1.900 ft 250° 250° 4 kt METAR LFMK 060500Z AUTO 25004KT 220V280 9999 BKN019 OVC031 17/14 Q1029 TEMPO BKN012
06:30
M
17 °C 10 km+ 2.900 ft 270° 270° 5 kt METAR LFMK 060430Z AUTO 27005KT 9999 SCT021 OVC029 17/14 Q1029 TEMPO BKN012
06:00
M
17 °C 10 km+ 1.900 ft 280° 280° 5 kt METAR LFMK 060400Z AUTO 28005KT 240V310 9999 BKN019 OVC026 17/15 Q1029 BECMG BKN012
05:30
M
17 °C 10 km+ 2.500 ft 280° 280° 7 kt METAR LFMK 060330Z AUTO 28007KT 240V300 9999 BKN025 OVC052 17/15 Q1028 BECMG BKN012
05:00
V
17 °C 10 km+ - 280° 280° 7 kt METAR LFMK 060300Z AUTO 28007KT CAVOK 17/15 Q1028
04:30
V
17 °C 10 km+ - 280° 280° 10 kt METAR LFMK 060230Z AUTO 28010KT 9999 FEW023 17/15 Q1028
04:00
M
17 °C 10 km+ 2.100 ft 280° 280° 11 kt METAR LFMK 060200Z AUTO 28011KT 9999 BKN021 BKN033 BKN049 17/16 Q1028
03:30
M
18 °C 10 km+ 1.700 ft 270° 270° 10 kt METAR LFMK 060130Z AUTO 27010KT 9999 FEW007 SCT011 BKN017 18/16 Q1028
03:00
I
19 °C 10 km+ 700 ft Var Var 2 kt METAR LFMK 060100Z AUTO VRB02KT 9999 BKN007 OVC011 19/17 Q1028
02:30
I
19 °C 10 km+ 900 ft Var Var 1 kt METAR LFMK 060030Z AUTO VRB01KT 9999 BKN009 OVC016 19/17 Q1028
02:00
I
19 °C 10 km+ 900 ft Var Var 2 kt METAR LFMK 060000Z AUTO VRB02KT 9999 BKN009 BKN028 OVC040 19/18 Q1028
01:30
I
19 °C 10 km+ 900 ft Var Var 2 kt METAR LFMK 052330Z AUTO VRB02KT 9999 BKN009 BKN020 BKN028 19/17 Q1028
01:00
I
19 °C 10 km+ 900 ft 080° 080° 4 kt METAR LFMK 052300Z AUTO 08004KT 9999 BKN009 OVC031 19/17 Q1028
00:30
I
19 °C 10 km+ 900 ft 070° 070° 7 kt METAR LFMK 052230Z AUTO 07007KT 9999 BKN009 OVC028 19/18 Q1027
00:00
I
19 °C 10 km+ 900 ft 070° 070° 6 kt METAR LFMK 052200Z AUTO 07006KT 9999 OVC009 19/18 Q1027

5. Oktober 2022

Uhrzeit Code Wetter Temp. Sichtweite Wolkendecke Wind METAR/SPECI
23:30
I
19 °C 10 km+ 900 ft 080° 080° 6 kt METAR LFMK 052130Z AUTO 08006KT 9999 OVC009 19/18 Q1027
23:00
I
19 °C 10 km+ 900 ft 080° 080° 7 kt METAR LFMK 052100Z AUTO 08007KT 9999 OVC009 19/17 Q1027
22:30
I
19 °C 10 km+ 900 ft 080° 080° 7 kt METAR LFMK 052030Z AUTO 08007KT 9999 OVC009 19/17 Q1027
22:00
M
19 °C 10 km+ 1.100 ft 080° 080° 8 kt METAR LFMK 052000Z AUTO 08008KT 060V120 9999 OVC011 19/17 Q1026
21:30
M
19 °C 10 km+ 1.200 ft 080° 080° 10 kt METAR LFMK 051930Z AUTO 08010KT 9999 BKN012 OVC029 19/17 Q1026
21:00
M
20 °C 10 km+ 1.300 ft 080° 080° 10 kt METAR LFMK 051900Z AUTO 08010KT 9999 OVC013 20/17 Q1025
20:30
M
20 °C 10 km+ 1.300 ft 080° 080° 11 kt METAR LFMK 051830Z AUTO 08011KT 9999 OVC013 20/17 Q1025 BECMG OVC007
20:00
M
20 °C 10 km+ 1.400 ft Var 000° 0 kt METAR LFMK 051800Z AUTO /////KT 9999 BKN014 OVC025 20/17 Q1025
19:30
M
20 °C 10 km+ 1.500 ft 080° 080° 13 kt METAR LFMK 051730Z AUTO 08013KT 9999 BKN015 OVC025 20/17 Q1024 BECMG OVC007
19:00
M
20 °C 10 km+ 1.700 ft 080° 080° 14 kt METAR LFMK 051700Z AUTO 08014KT 060V120 9999 BKN017 BKN023 20/17 Q1024 BECMG BKN014
18:30
M
20 °C 10 km+ 1.700 ft 080° 080° 14 kt METAR LFMK 051630Z AUTO 08014KT 9999 BKN017 BKN025 20/17 Q1024 BECMG BKN014
18:00
M
21 °C 10 km+ 2.100 ft 080° 080° 15 kt METAR LFMK 051600Z AUTO 08015KT 060V120 9999 BKN021 21/16 Q1023 TEMPO 09016G26KT BECMG BKN014
17:30
M
22 °C 10 km+ 2.400 ft 090° 090° 16 kt METAR LFMK 051530Z AUTO 09016KT 070V130 9999 BKN024 22/17 Q1023 TEMPO 09016G26KT BECMG BKN014
17:00
V
22 °C 10 km+ - 090° 090° 15 kt METAR LFMK 051500Z AUTO 09015KT 050V160 9999 FEW023 22/16 Q1023 BECMG 09016G26KT BKN014
16:30
V
22 °C 10 km+ - 090° 090° 18 kt METAR LFMK 051430Z AUTO 09018KT 070V130 9999 SCT027 22/16 Q1023 BECMG 09016G26KT BKN014
16:00
V
23 °C 10 km+ - 080° 080° 19 kt METAR LFMK 051400Z AUTO 08019KT 9999 SCT026 23/16 Q1023 BECMG 09016G26KT BKN014
15:30
M
23 °C 10 km+ 2.700 ft 080° 080° 18 kt METAR LFMK 051330Z AUTO 08018KT 9999 BKN027 BKN032 23/16 Q1023 BECMG 09016G26KT BKN014
15:00
V
22 °C 10 km+ - 090° 090° 16 - 26 kt METAR LFMK 051300Z AUTO 09016G26KT 060V130 9999 FEW026 SCT031 22/16 Q1023 NOSIG
14:30
V
22 °C 10 km+ 3.500 ft 090° 090° 17 kt METAR LFMK 051230Z AUTO 09017KT 060V150 9999 FEW027 BKN035 22/16 Q1023 BECMG 09016G26KT
14:00
V
22 °C 10 km+ 3.200 ft 090° 090° 14 kt METAR LFMK 051200Z AUTO 09014KT 070V150 9999 SCT027 OVC032 22/15 Q1023 BECMG 09016G26KT
13:30
M
22 °C 10 km+ 2.100 ft 080° 080° 16 kt METAR LFMK 051130Z AUTO 08016KT 060V130 9999 BKN021 OVC032 22/16 Q1024 BECMG 09016G26KT
13:00
M
21 °C 10 km+ 2.000 ft 080° 080° 16 kt METAR LFMK 051100Z AUTO 08016KT 050V110 9999 BKN020 OVC030 21/16 Q1024 BECMG 09016G26KT
12:30
M
21 °C 10 km+ 1.700 ft 090° 090° 11 kt METAR LFMK 051030Z AUTO 09011KT 060V140 9999 BKN017 BKN022 21/16 Q1024 BECMG 09016G26KT
12:00
M
20 °C 10 km+ 1.300 ft 080° 080° 15 kt METAR LFMK 051000Z AUTO 08015KT 9999 BKN013 OVC020 20/16 Q1024 BECMG 09016G26KT BKN020
11:30
M
19 °C 10 km+ 1.300 ft 090° 090° 12 kt METAR LFMK 050930Z AUTO 09012KT 060V130 9999 BKN013 OVC025 19/16 Q1024 BECMG 09016G26KT BKN020
11:00
M
18 °C 10 km+ 1.100 ft 090° 090° 11 kt METAR LFMK 050900Z AUTO 09011KT 060V130 9999 BKN011 OVC025 18/15 Q1024 BECMG 09016G26KT BKN020
10:30
M
18 °C 10 km+ 1.200 ft 080° 080° 13 kt METAR LFMK 050830Z AUTO 08013KT 9999 BKN012 BKN021 OVC027 18/15 Q1024 BECMG 09016G26KT BKN016
10:00
M
17 °C 10 km+ 1.200 ft 080° 080° 13 kt METAR LFMK 050800Z AUTO 08013KT 070V130 9999 BKN012 BKN018 OVC026 17/15 Q1024 BECMG 09016G26KT BKN016
09:30
M
16 °C 10 km+ 1.100 ft 090° 090° 11 kt METAR LFMK 050730Z AUTO 09011KT 9999 OVC011 16/14 Q1024 BECMG 09016G26KT BKN016
09:00
M
16 °C 10 km+ 1.000 ft 090° 090° 10 kt METAR LFMK 050700Z AUTO 09010KT 070V130 9999 OVC010 16/14 Q1023 NOSIG
08:30
I
15 °C 10 km+ 800 ft 090° 090° 11 kt METAR LFMK 050630Z AUTO 09011KT 060V130 9999 OVC008 15/14 Q1023 BECMG OVC012
08:00
I
15 °C 10 km+ 800 ft 090° 090° 11 kt METAR LFMK 050600Z AUTO 09011KT 9999 OVC008 15/14 Q1023 BECMG OVC012
07:30
I
15 °C 10 km+ 800 ft 080° 080° 13 kt METAR LFMK 050530Z AUTO 08013KT 050V120 9999 BKN008 BKN013 OVC019 15/14 Q1023 BECMG OVC012
07:00
M
15 °C 10 km+ 1.200 ft 080° 080° 12 kt METAR LFMK 050500Z AUTO 08012KT 9999 BKN012 OVC018 15/14 Q1022 TEMPO OVC004
06:30
I
15 °C 10 km+ 900 ft 090° 090° 12 kt METAR LFMK 050430Z AUTO 09012KT 9999 OVC009 15/14 Q1022 TEMPO OVC004
06:00
L
15 °C 10 km+ 400 ft 090° 090° 9 kt METAR LFMK 050400Z AUTO 09009KT 9999 OVC004 15/14 Q1022 NOSIG
05:30
I
14 °C 10 km+ 600 ft 080° 080° 10 kt METAR LFMK 050330Z AUTO 08010KT 9999 OVC006 14/13 Q1022 TEMPO OVC004
05:00
I
14 °C 10 km+ 700 ft 080° 080° 8 kt METAR LFMK 050300Z AUTO 08008KT 9999 OVC007 14/13 Q1022 TEMPO OVC004
04:30
I
13 °C 10 km+ 900 ft 090° 090° 5 kt METAR LFMK 050230Z AUTO 09005KT 9999 BKN009 13/12 Q1023
04:00
V
11 °C 10 km+ - Var Var 2 kt METAR LFMK 050200Z AUTO VRB02KT CAVOK 11/10 Q1023
03:30
V
11 °C 10 km+ - Var Var 1 kt METAR LFMK 050130Z AUTO VRB01KT CAVOK 11/10 Q1023
03:00
V
11 °C 10 km+ - Var 000° 0 kt METAR LFMK 050100Z AUTO 00000KT CAVOK 11/10 Q1023
02:30
V
12 °C 10 km+ - Var Var 2 kt METAR LFMK 050030Z AUTO VRB02KT CAVOK 12/11 Q1023
02:00
V
12 °C 10 km+ - 170° 170° 3 kt METAR LFMK 050000Z AUTO 17003KT 130V200 CAVOK 12/11 Q1023
01:30
V
12 °C 10 km+ - Var Var 2 kt METAR LFMK 042330Z AUTO VRB02KT CAVOK 12/11 Q1023
01:00
V
13 °C 10 km+ - Var Var 3 kt METAR LFMK 042300Z AUTO VRB03KT CAVOK 13/11 Q1023
00:30
V
13 °C 10 km+ - Var Var 2 kt METAR LFMK 042230Z AUTO VRB02KT CAVOK 13/12 Q1023
00:00
V
13 °C 10 km+ - Var Var 2 kt METAR LFMK 042200Z AUTO VRB02KT CAVOK 13/12 Q1023

4. Oktober 2022

Uhrzeit Code Wetter Temp. Sichtweite Wolkendecke Wind METAR/SPECI
23:30
V
14 °C 10 km+ - Var 000° 0 kt METAR LFMK 042130Z AUTO 00000KT CAVOK 14/11 Q1023
23:00
V
15 °C 10 km+ - Var Var 2 kt METAR LFMK 042100Z AUTO VRB02KT CAVOK 15/12 Q1023
22:30
V
16 °C 10 km+ - Var Var 2 kt METAR LFMK 042030Z AUTO VRB02KT CAVOK 16/12 Q1023
22:00
V
18 °C 10 km+ - Var Var 3 kt METAR LFMK 042000Z AUTO VRB03KT CAVOK 18/12 Q1022
21:30
V
19 °C 10 km+ - Var Var 3 kt METAR LFMK 041930Z AUTO VRB03KT CAVOK 19/13 Q1022
21:00
V
19 °C 10 km+ - 080° 080° 5 kt METAR LFMK 041900Z AUTO 08005KT 060V130 CAVOK 19/12 Q1022
20:30
V
20 °C 10 km+ - 090° 090° 5 kt METAR LFMK 041830Z AUTO 09005KT 060V130 CAVOK 20/13 Q1022
20:00
V
19 °C 10 km+ - 070° 070° 5 kt METAR LFMK 041800Z AUTO 07005KT CAVOK 19/12 Q1021 NOSIG
19:30
V
20 °C 10 km+ - Var 000° 0 kt METAR LFMK 041730Z AUTO 00000KT CAVOK 20/10 Q1021 NOSIG
19:00
V
23 °C 10 km+ - 290° 290° 4 kt METAR LFMK 041700Z AUTO 29004KT CAVOK 23/10 Q1021 NOSIG
18:30
V
25 °C 10 km+ - 290° 290° 6 kt METAR LFMK 041630Z AUTO 29006KT CAVOK 25/08 Q1020 NOSIG
18:00
V
26 °C 10 km+ - 290° 290° 7 kt METAR LFMK 041600Z AUTO 29007KT CAVOK 26/08 Q1020 NOSIG
17:30
V
27 °C 10 km+ - 280° 280° 5 kt METAR LFMK 041530Z AUTO 28005KT 230V310 CAVOK 27/09 Q1020 NOSIG
17:00
V
26 °C 10 km+ - 280° 280° 7 kt METAR LFMK 041500Z AUTO 28007KT 240V320 CAVOK 26/10 Q1020 NOSIG
16:30
V
26 °C 10 km+ - 280° 280° 7 kt METAR LFMK 041430Z AUTO 28007KT 230V320 CAVOK 26/11 Q1020 NOSIG
16:00
V
27 °C 10 km+ - 300° 300° 8 kt METAR LFMK 041400Z AUTO 30008KT 240V330 CAVOK 27/11 Q1020 NOSIG
Ältere Daten

Wir und Dritte verfolgen dein Internetverhalten auf unserer Website mit Cookies. Wenn du fortfährst, gehen wir davon aus, dass du mit unserer Cookie-Richtlinie einverstanden bist. Mehr erfahren